Terminal Aerodrome Forecast
Issued by NWS Glasgow, MT

Home | Current Version | Previous Version | Text Only | Print | Product List | Glossary On
Versions: 1 2 3 4 5 6 7 8 9 10 11 12 13 14 15
000
FTUS45 KGGW 301100
TAFGGW
TAF
KGGW 301133Z 3012/3112 11014KT P6SM BKN200
     FM301600 12018KT P6SM BKN150
     FM310000 12017KT P6SM -SHRA BKN060
     FM310600 11014KT P6SM BKN080=

USA.gov is the U.S. government's official web portal to all federal, state and local government web resources and services.